createdAt,value
2018-10-11T00:00:30.379Z,1006.56
2018-10-11T00:01:30.360Z,1006.61
2018-10-11T00:02:30.350Z,1006.63
2018-10-11T00:03:30.363Z,1006.68
2018-10-11T00:04:30.335Z,1006.70
2018-10-11T00:05:30.315Z,1006.68
2018-10-11T00:06:30.311Z,1006.63
2018-10-11T00:07:30.291Z,1006.63
2018-10-11T00:08:30.308Z,1006.62
2018-10-11T00:09:30.268Z,1006.65
2018-10-11T00:10:30.263Z,1006.58
2018-10-11T00:11:30.254Z,1006.52
2018-10-11T00:12:30.251Z,1006.49
2018-10-11T00:13:30.259Z,1006.45
2018-10-11T00:14:30.220Z,1006.50
2018-10-11T00:15:30.205Z,1006.46
2018-10-11T00:16:30.191Z,1006.43
2018-10-11T00:17:30.208Z,1006.39
2018-10-11T00:18:30.203Z,1006.40
2018-10-11T00:19:30.166Z,1006.42
2018-10-11T00:20:30.145Z,1006.45
2018-10-11T00:21:30.142Z,1006.51
2018-10-11T00:22:30.124Z,1006.50
2018-10-11T00:23:30.138Z,1006.54
2018-10-11T00:24:30.130Z,1006.55
2018-10-11T00:25:30.090Z,1006.49
2018-10-11T00:26:30.079Z,1006.54
2018-10-11T00:27:30.067Z,1006.62
2018-10-11T00:28:30.083Z,1006.54
2018-10-11T00:29:30.058Z,1006.67
2018-10-11T00:30:30.034Z,1006.62
2018-10-11T00:31:30.021Z,1006.66
2018-10-11T00:32:30.009Z,1006.63
2018-10-11T00:33:30.023Z,1006.62
2018-10-11T00:34:29.986Z,1006.53
2018-10-11T00:35:29.993Z,1006.54
2018-10-11T00:36:29.964Z,1006.51
2018-10-11T00:37:29.968Z,1006.43
2018-10-11T00:38:29.969Z,1006.49
2018-10-11T00:39:29.930Z,1006.46
2018-10-11T00:40:29.924Z,1006.47
2018-10-11T00:41:29.917Z,1006.46
2018-10-11T00:42:29.895Z,1006.44
2018-10-11T00:43:29.908Z,1006.44
2018-10-11T00:44:29.873Z,1006.41
2018-10-11T00:45:29.863Z,1006.40
2018-10-11T00:46:29.850Z,1006.44
2018-10-11T00:47:29.845Z,1006.39
2018-10-11T00:48:29.851Z,1006.40
2018-10-11T00:49:29.835Z,1006.42
2018-10-11T00:50:29.805Z,1006.44
2018-10-11T00:51:29.793Z,1006.41
2018-10-11T00:52:29.786Z,1006.43
2018-10-11T00:53:29.808Z,1006.42
2018-10-11T00:54:29.759Z,1006.45
2018-10-11T00:55:29.750Z,1006.47
2018-10-11T00:56:29.741Z,1006.49
2018-10-11T00:57:29.727Z,1006.53
2018-10-11T00:58:29.739Z,1006.55
2018-10-11T00:59:29.726Z,1006.51
2018-10-11T01:00:29.691Z,1006.52
2018-10-11T01:01:29.680Z,1006.51
2018-10-11T01:02:29.669Z,1006.56
2018-10-11T01:03:29.682Z,1006.47
2018-10-11T01:04:29.650Z,1006.42
2018-10-11T01:05:29.643Z,1006.38
2018-10-11T01:06:29.628Z,1006.32
2018-10-11T01:07:29.612Z,1006.24
2018-10-11T01:08:29.626Z,1006.27
2018-10-11T01:09:29.631Z,1006.26
2018-10-11T01:10:29.578Z,1006.26
2018-10-11T01:11:29.585Z,1006.28
2018-10-11T01:12:29.556Z,1006.27
2018-10-11T01:13:29.573Z,1006.23
2018-10-11T01:14:29.534Z,1006.21
2018-10-11T01:15:29.523Z,1006.21
2018-10-11T01:16:29.511Z,1006.25
2018-10-11T01:17:29.510Z,1006.28
2018-10-11T01:18:29.513Z,1006.31
2018-10-11T01:19:29.477Z,1006.37
2018-10-11T01:20:29.468Z,1006.41
2018-10-11T01:21:29.460Z,1006.39
2018-10-11T01:22:29.442Z,1006.41
2018-10-11T01:23:29.455Z,1006.47
2018-10-11T01:24:29.425Z,1006.45
2018-10-11T01:25:29.411Z,1006.43
2018-10-11T01:26:29.412Z,1006.47
2018-10-11T01:27:29.387Z,1006.47
2018-10-11T01:28:29.401Z,1006.43
2018-10-11T01:29:29.380Z,1006.46
2018-10-11T01:30:29.356Z,1006.42
2018-10-11T01:31:29.341Z,1006.43
2018-10-11T01:32:29.344Z,1006.43
2018-10-11T01:33:29.319Z,1006.39
2018-10-11T01:34:29.335Z,1006.33
2018-10-11T01:35:29.295Z,1006.32
2018-10-11T01:36:29.284Z,1006.32
2018-10-11T01:37:29.274Z,1006.30
2018-10-11T01:38:29.277Z,1006.30
2018-10-11T01:39:29.275Z,1006.27
2018-10-11T01:40:29.239Z,1006.23
2018-10-11T01:41:29.229Z,1006.24
2018-10-11T01:42:29.220Z,1006.27
2018-10-11T01:43:29.229Z,1006.29
2018-10-11T01:44:29.206Z,1006.30
2018-10-11T01:45:29.192Z,1006.34
2018-10-11T01:46:29.180Z,1006.35
2018-10-11T01:47:29.161Z,1006.36
2018-10-11T01:48:29.152Z,1006.32
2018-10-11T01:49:29.161Z,1006.31
2018-10-11T01:50:29.132Z,1006.28
2018-10-11T01:51:29.123Z,1006.27
2018-10-11T01:52:29.106Z,1006.26
2018-10-11T01:53:29.108Z,1006.21
2018-10-11T01:54:29.108Z,1006.20
2018-10-11T01:55:29.069Z,1006.14
2018-10-11T01:56:29.060Z,1006.13
2018-10-11T01:57:29.048Z,1006.06
2018-10-11T01:58:29.037Z,1006.06
2018-10-11T01:59:29.061Z,1006.04
2018-10-11T02:00:29.015Z,1006.07
2018-10-11T02:01:29.004Z,1006.06
2018-10-11T02:02:28.990Z,1006.10
2018-10-11T02:03:28.982Z,1006.09
2018-10-11T02:04:28.991Z,1006.09
2018-10-11T02:05:28.958Z,1006.12
2018-10-11T02:06:28.945Z,1006.06
2018-10-11T02:07:28.934Z,1006.04
2018-10-11T02:08:28.922Z,1006.00
2018-10-11T02:09:29.002Z,1005.95
2018-10-11T02:10:28.899Z,1005.95
2018-10-11T02:11:28.894Z,1006.01
2018-10-11T02:12:28.877Z,1005.95
2018-10-11T02:13:28.871Z,1005.93
2018-10-11T02:14:28.888Z,1006.00
2018-10-11T02:15:28.845Z,1005.99
2018-10-11T02:16:28.832Z,1005.94
2018-10-11T02:17:28.864Z,1006.00
2018-10-11T02:18:28.810Z,1005.97
2018-10-11T02:19:28.824Z,1005.96
2018-10-11T02:20:28.786Z,1006.05
2018-10-11T02:21:28.775Z,1006.01
2018-10-11T02:22:28.768Z,1006.04
2018-10-11T02:23:28.763Z,1006.06
2018-10-11T02:24:28.768Z,1006.02
2018-10-11T02:25:28.730Z,1006.02
2018-10-11T02:26:28.717Z,1005.99
2018-10-11T02:27:28.708Z,1005.98
2018-10-11T02:28:28.696Z,1006.00
2018-10-11T02:29:28.720Z,1006.02
2018-10-11T02:30:28.680Z,1006.03
2018-10-11T02:31:28.662Z,1006.05
2018-10-11T02:32:28.651Z,1006.04
2018-10-11T02:33:28.642Z,1006.03
2018-10-11T02:34:28.653Z,1006.09
2018-10-11T02:35:28.616Z,1006.05
2018-10-11T02:36:28.611Z,1006.04
2018-10-11T02:37:28.598Z,1005.98
2018-10-11T02:38:28.587Z,1005.94
2018-10-11T02:39:28.595Z,1005.91
2018-10-11T02:40:28.560Z,1005.92
2018-10-11T02:41:28.550Z,1005.87
2018-10-11T02:42:28.537Z,1005.92
2018-10-11T02:43:28.545Z,1005.84
2018-10-11T02:44:28.546Z,1005.87
2018-10-11T02:45:28.505Z,1005.88
2018-10-11T02:46:28.491Z,1005.90
2018-10-11T02:47:28.502Z,1005.90
2018-10-11T02:48:28.469Z,1005.88
2018-10-11T02:49:28.489Z,1005.91
2018-10-11T02:50:28.451Z,1005.89
2018-10-11T02:51:28.435Z,1005.89
2018-10-11T02:52:28.423Z,1005.94
2018-10-11T02:53:28.421Z,1005.94
2018-10-11T02:54:28.425Z,1005.95
2018-10-11T02:55:28.389Z,1005.96
2018-10-11T02:56:28.398Z,1006.01
2018-10-11T02:57:28.369Z,1005.96
2018-10-11T02:58:28.357Z,1006.04
2018-10-11T02:59:28.374Z,1005.96
2018-10-11T03:00:28.335Z,1005.94
2018-10-11T03:01:28.324Z,1005.93
2018-10-11T03:02:28.337Z,1005.90
2018-10-11T03:03:28.299Z,1005.88
2018-10-11T03:04:28.312Z,1005.93
2018-10-11T03:05:28.278Z,1005.90
2018-10-11T03:06:28.266Z,1005.92
2018-10-11T03:07:28.254Z,1005.90
2018-10-11T03:08:28.251Z,1005.92
2018-10-11T03:09:28.256Z,1005.93
2018-10-11T03:10:28.222Z,1005.95
2018-10-11T03:11:28.209Z,1005.98
2018-10-11T03:12:28.206Z,1005.98
2018-10-11T03:13:28.186Z,1006.03
2018-10-11T03:14:28.208Z,1006.06
2018-10-11T03:15:28.184Z,1006.07
2018-10-11T03:16:28.153Z,1006.07
2018-10-11T03:17:28.142Z,1006.11
2018-10-11T03:18:28.133Z,1006.07
2018-10-11T03:19:28.148Z,1006.07
2018-10-11T03:20:28.107Z,1006.08
2018-10-11T03:21:28.110Z,1006.15
2018-10-11T03:22:28.086Z,1006.15
2018-10-11T03:23:28.073Z,1006.12
2018-10-11T03:24:28.090Z,1006.18
2018-10-11T03:25:28.051Z,1006.22
2018-10-11T03:26:28.043Z,1006.20
2018-10-11T03:27:28.040Z,1006.20
2018-10-11T03:28:28.017Z,1006.21
2018-10-11T03:29:28.007Z,1006.19
2018-10-11T03:30:28.023Z,1006.15
2018-10-11T03:31:27.989Z,1006.14
2018-10-11T03:32:27.971Z,1006.05
2018-10-11T03:33:27.962Z,1006.10
2018-10-11T03:34:27.965Z,1006.09
2018-10-11T03:35:27.965Z,1006.09
2018-10-11T03:36:27.928Z,1006.07
2018-10-11T03:37:27.921Z,1006.08
2018-10-11T03:38:27.904Z,1006.04
2018-10-11T03:39:27.895Z,1006.09
2018-10-11T03:40:27.907Z,1006.02
2018-10-11T03:41:27.870Z,1005.97
2018-10-11T03:42:27.948Z,1005.97
2018-10-11T03:43:27.854Z,1005.97
2018-10-11T03:44:27.841Z,1006.01
2018-10-11T03:45:27.863Z,1006.05
2018-10-11T03:46:27.843Z,1006.02
2018-10-11T03:47:27.810Z,1006.01
2018-10-11T03:48:27.789Z,1006.01
2018-10-11T03:49:27.803Z,1006.00
2018-10-11T03:50:27.794Z,1005.98
2018-10-11T03:51:27.755Z,1005.96
2018-10-11T03:52:27.744Z,1005.97
2018-10-11T03:53:27.739Z,1005.93
2018-10-11T03:54:27.723Z,1005.96
2018-10-11T03:55:27.741Z,1005.96
2018-10-11T03:56:27.700Z,1005.90
2018-10-11T03:57:27.688Z,1005.94
2018-10-11T03:58:27.679Z,1005.92
2018-10-11T03:59:27.670Z,1005.91
2018-10-11T04:00:27.680Z,1005.95
2018-10-11T04:01:27.645Z,1005.92
2018-10-11T04:02:27.644Z,1005.96
2018-10-11T04:03:27.620Z,1005.91
2018-10-11T04:04:27.614Z,1005.92
2018-10-11T04:05:27.623Z,1005.92
2018-10-11T04:06:27.591Z,1005.92
2018-10-11T04:07:27.619Z,1005.92
2018-10-11T04:08:27.581Z,1005.92
2018-10-11T04:09:27.555Z,1005.91
2018-10-11T04:10:27.566Z,1005.95
2018-10-11T04:11:27.539Z,1005.94
2018-10-11T04:12:27.525Z,1005.96
2018-10-11T04:13:27.508Z,1005.96
2018-10-11T04:14:27.496Z,1005.93
2018-10-11T04:15:27.520Z,1005.94
2018-10-11T04:16:27.473Z,1005.93
2018-10-11T04:17:27.463Z,1005.88
2018-10-11T04:18:27.455Z,1005.85
2018-10-11T04:19:27.441Z,1005.88
2018-10-11T04:20:27.462Z,1005.84
2018-10-11T04:21:27.417Z,1005.83
2018-10-11T04:22:27.405Z,1005.86
2018-10-11T04:23:27.452Z,1005.80
2018-10-11T04:24:27.395Z,1005.82
2018-10-11T04:25:27.400Z,1005.78
2018-10-11T04:26:27.360Z,1005.77
2018-10-11T04:27:27.354Z,1005.78
2018-10-11T04:28:27.355Z,1005.77
2018-10-11T04:29:27.329Z,1005.74
2018-10-11T04:30:27.340Z,1005.69
2018-10-11T04:31:27.303Z,1005.67
2018-10-11T04:32:27.292Z,1005.69
2018-10-11T04:33:27.301Z,1005.66
2018-10-11T04:34:27.268Z,1005.63
2018-10-11T04:35:27.295Z,1005.66
2018-10-11T04:36:27.249Z,1005.66
2018-10-11T04:37:27.236Z,1005.68
2018-10-11T04:38:27.234Z,1005.68
2018-10-11T04:39:27.221Z,1005.72
2018-10-11T04:40:27.229Z,1005.74
2018-10-11T04:41:27.190Z,1005.76
2018-10-11T04:42:27.179Z,1005.75
2018-10-11T04:43:27.168Z,1005.81
2018-10-11T04:44:27.155Z,1005.77
2018-10-11T04:45:27.187Z,1005.81
2018-10-11T04:46:27.135Z,1005.87
2018-10-11T04:47:27.133Z,1005.87
2018-10-11T04:48:27.115Z,1005.88
2018-10-11T04:49:27.103Z,1005.94
2018-10-11T04:50:27.116Z,1005.97
2018-10-11T04:51:27.088Z,1005.96
2018-10-11T04:52:27.065Z,1005.92
2018-10-11T04:53:27.102Z,1005.89
2018-10-11T04:54:27.042Z,1005.94
2018-10-11T04:55:27.055Z,1005.93
2018-10-11T04:56:27.026Z,1005.93
2018-10-11T04:57:27.025Z,1006.03
2018-10-11T04:58:26.999Z,1006.05
2018-10-11T04:59:26.988Z,1006.06
2018-10-11T05:00:26.998Z,1006.10
2018-10-11T05:01:26.964Z,1006.15
2018-10-11T05:02:26.952Z,1006.19
2018-10-11T05:03:26.951Z,1006.21
2018-10-11T05:04:26.958Z,1006.22
2018-10-11T05:05:26.989Z,1006.21
2018-10-11T05:06:26.908Z,1006.17
2018-10-11T05:07:26.896Z,1006.14
2018-10-11T05:08:26.884Z,1006.10
2018-10-11T05:09:26.881Z,1006.10
2018-10-11T05:10:26.885Z,1006.14
2018-10-11T05:11:26.856Z,1006.15
2018-10-11T05:12:26.840Z,1006.19
2018-10-11T05:13:26.827Z,1006.19
2018-10-11T05:14:26.820Z,1006.17
2018-10-11T05:15:26.831Z,1006.19
2018-10-11T05:16:26.795Z,1006.22
2018-10-11T05:17:26.867Z,1006.22
2018-10-11T05:18:26.787Z,1006.26
2018-10-11T05:19:26.762Z,1006.30
2018-10-11T05:20:26.776Z,1006.33
2018-10-11T05:21:26.754Z,1006.35
2018-10-11T05:22:26.727Z,1006.39
2018-10-11T05:23:26.718Z,1006.37
2018-10-11T05:24:26.712Z,1006.43
2018-10-11T05:25:26.695Z,1006.48
2018-10-11T05:26:26.704Z,1006.52
2018-10-11T05:27:26.697Z,1006.56
2018-10-11T05:28:26.658Z,1006.62
2018-10-11T05:29:26.651Z,1006.71
2018-10-11T05:30:26.640Z,1006.73
2018-10-11T05:31:26.651Z,1006.79
2018-10-11T05:32:26.695Z,1006.76
2018-10-11T05:33:26.612Z,1006.77
2018-10-11T05:34:26.593Z,1006.73
2018-10-11T05:35:26.581Z,1006.75
2018-10-11T05:36:26.612Z,1006.75
2018-10-11T05:37:26.559Z,1006.75
2018-10-11T05:38:26.545Z,1006.74
2018-10-11T05:39:26.558Z,1006.73
2018-10-11T05:40:26.531Z,1006.73
2018-10-11T05:41:26.537Z,1006.71
2018-10-11T05:42:26.509Z,1006.70
2018-10-11T05:43:26.493Z,1006.72
2018-10-11T05:44:26.544Z,1006.70
2018-10-11T05:45:26.466Z,1006.69
2018-10-11T05:46:26.492Z,1006.71
2018-10-11T05:47:26.450Z,1006.72
2018-10-11T05:48:26.432Z,1006.69
2018-10-11T05:49:26.426Z,1006.71
2018-10-11T05:50:26.467Z,1006.61
2018-10-11T05:51:26.424Z,1006.66
2018-10-11T05:52:26.386Z,1006.67
2018-10-11T05:53:26.378Z,1006.67
2018-10-11T05:54:26.373Z,1006.67
2018-10-11T05:55:26.351Z,1006.64
2018-10-11T05:56:26.364Z,1006.69
2018-10-11T05:57:26.329Z,1006.69
2018-10-11T05:58:26.328Z,1006.68
2018-10-11T05:59:26.312Z,1006.66
2018-10-11T06:00:26.318Z,1006.70
2018-10-11T06:01:26.309Z,1006.68
2018-10-11T06:02:26.279Z,1006.69
2018-10-11T06:03:26.263Z,1006.65
2018-10-11T06:04:26.270Z,1006.64
2018-10-11T06:05:26.239Z,1006.57
2018-10-11T06:06:26.255Z,1006.63
2018-10-11T06:07:26.228Z,1006.59
2018-10-11T06:08:26.215Z,1006.60
2018-10-11T06:09:26.198Z,1006.61
2018-10-11T06:10:26.190Z,1006.61
2018-10-11T06:11:26.201Z,1006.67
2018-10-11T06:12:26.162Z,1006.73
2018-10-11T06:13:26.157Z,1006.73
2018-10-11T06:14:26.139Z,1006.74
2018-10-11T06:15:26.127Z,1006.72
2018-10-11T06:16:26.139Z,1006.80
2018-10-11T06:17:26.108Z,1006.81
2018-10-11T06:18:26.101Z,1006.82
2018-10-11T06:19:26.082Z,1006.83
2018-10-11T06:20:26.069Z,1006.89
2018-10-11T06:21:26.081Z,1006.89
2018-10-11T06:22:26.047Z,1006.92
2018-10-11T06:23:26.255Z,1006.94
2018-10-11T06:24:26.027Z,1006.91
2018-10-11T06:25:26.017Z,1006.91
2018-10-11T06:26:26.029Z,1006.88
2018-10-11T06:27:26.452Z,1006.83
2018-10-11T06:28:26.296Z,1006.82
2018-10-11T06:29:26.353Z,1006.81
2018-10-11T06:30:27.208Z,1006.84
2018-10-11T06:31:25.988Z,1006.90
2018-10-11T06:32:25.933Z,1006.89
2018-10-11T06:33:25.926Z,1006.92
2018-10-11T06:34:25.930Z,1006.93
2018-10-11T06:35:25.900Z,1007.00
2018-10-11T06:36:26.584Z,1006.99
2018-10-11T06:37:25.877Z,1006.95
2018-10-11T06:38:25.866Z,1006.99
2018-10-11T06:39:25.871Z,1007.01
2018-10-11T06:40:25.853Z,1007.02
2018-10-11T06:41:25.859Z,1007.04
2018-10-11T06:42:25.912Z,1007.01
2018-10-11T06:43:25.809Z,1007.06
2018-10-11T06:44:25.821Z,1007.04
2018-10-11T06:45:25.786Z,1007.06
2018-10-11T06:46:25.853Z,1007.04
2018-10-11T06:47:25.767Z,1007.05
2018-10-11T06:48:25.767Z,1007.13
2018-10-11T06:49:25.741Z,1007.21
2018-10-11T06:50:25.795Z,1007.21
2018-10-11T06:51:25.742Z,1007.19
2018-10-11T06:52:25.708Z,1007.14
2018-10-11T06:53:25.708Z,1007.18
2018-10-11T06:54:25.684Z,1007.20
2018-10-11T06:55:25.673Z,1007.22
2018-10-11T06:56:25.685Z,1007.25
2018-10-11T06:57:25.650Z,1007.25
2018-10-11T06:58:25.639Z,1007.25
2018-10-11T06:59:25.647Z,1007.31
2018-10-11T07:00:25.625Z,1007.31
2018-10-11T07:01:25.629Z,1007.33
2018-10-11T07:02:25.602Z,1007.41
2018-10-11T07:03:25.585Z,1007.49
2018-10-11T07:04:25.587Z,1007.50
2018-10-11T07:05:25.559Z,1007.49
2018-10-11T07:06:25.572Z,1007.48
2018-10-11T07:07:25.677Z,1007.46
2018-10-11T07:08:25.528Z,1007.47
2018-10-11T07:09:25.515Z,1007.48
2018-10-11T07:10:25.506Z,1007.49
2018-10-11T07:11:25.516Z,1007.48
2018-10-11T07:12:25.480Z,1007.47
2018-10-11T07:13:25.468Z,1007.52
2018-10-11T07:14:25.472Z,1007.56
2018-10-11T07:15:25.449Z,1007.50
2018-10-11T07:16:25.458Z,1007.51
2018-10-11T07:17:25.426Z,1007.56
2018-10-11T07:18:25.412Z,1007.58
2018-10-11T07:19:25.534Z,1007.58
2018-10-11T07:20:25.395Z,1007.61
2018-10-11T07:21:25.403Z,1007.65
2018-10-11T07:22:25.368Z,1007.61
2018-10-11T07:23:25.358Z,1007.63
2018-10-11T07:24:25.344Z,1007.64
2018-10-11T07:25:25.335Z,1007.67
2018-10-11T07:26:25.359Z,1007.61
2018-10-11T07:27:25.312Z,1007.64
2018-10-11T07:28:25.300Z,1007.58
2018-10-11T07:29:25.303Z,1007.56
2018-10-11T07:30:25.277Z,1007.57
2018-10-11T07:31:25.267Z,1007.55
2018-10-11T07:32:25.286Z,1007.47
2018-10-11T07:33:25.242Z,1007.46
2018-10-11T07:34:25.232Z,1007.46
2018-10-11T07:35:25.383Z,1007.46
2018-10-11T07:36:25.211Z,1007.47
2018-10-11T07:37:25.225Z,1007.55
2018-10-11T07:38:25.197Z,1007.49
2018-10-11T07:39:25.175Z,1007.48
2018-10-11T07:40:25.237Z,1007.52
2018-10-11T07:41:25.155Z,1007.46
2018-10-11T07:42:25.165Z,1007.52
2018-10-11T07:43:25.135Z,1007.50
2018-10-11T07:44:25.134Z,1007.51
2018-10-11T07:45:25.111Z,1007.56
2018-10-11T07:46:25.098Z,1007.54
2018-10-11T07:47:25.117Z,1007.56
2018-10-11T07:48:25.073Z,1007.60
2018-10-11T07:49:25.075Z,1007.58
2018-10-11T07:50:25.052Z,1007.59
2018-10-11T07:51:25.047Z,1007.62
2018-10-11T07:52:25.079Z,1007.63
2018-10-11T07:53:25.042Z,1007.57
2018-10-11T07:54:25.016Z,1007.62
2018-10-11T07:55:24.996Z,1007.58
2018-10-11T07:56:24.983Z,1007.58
2018-10-11T07:57:25.006Z,1007.64
2018-10-11T07:58:24.963Z,1007.58
2018-10-11T07:59:24.952Z,1007.63
2018-10-11T08:00:24.966Z,1007.58
2018-10-11T08:01:24.974Z,1007.61
2018-10-11T08:02:24.940Z,1007.62
2018-10-11T08:03:24.945Z,1007.56
2018-10-11T08:04:24.917Z,1007.60
2018-10-11T08:05:24.881Z,1007.62
2018-10-11T08:06:24.870Z,1007.59
2018-10-11T08:07:25.025Z,1007.62
2018-10-11T08:08:24.866Z,1007.59
2018-10-11T08:09:24.845Z,1007.64
2018-10-11T08:10:24.866Z,1007.54
2018-10-11T08:11:24.974Z,1007.52
2018-10-11T08:12:24.834Z,1007.55
2018-10-11T08:13:25.605Z,1007.49
2018-10-11T08:14:24.779Z,1007.50
2018-10-11T08:15:24.783Z,1007.47
2018-10-11T08:16:24.914Z,1007.48
2018-10-11T08:17:25.158Z,1007.53
2018-10-11T08:18:24.734Z,1007.50
2018-10-11T08:19:25.151Z,1007.52
2018-10-11T08:20:24.769Z,1007.54
2018-10-11T08:21:24.703Z,1007.48
2018-10-11T08:22:24.726Z,1007.53
2018-10-11T08:23:24.678Z,1007.52
2018-10-11T08:24:24.680Z,1007.50
2018-10-11T08:25:24.937Z,1007.53
2018-10-11T08:26:25.099Z,1007.53
2018-10-11T08:27:24.781Z,1007.56
2018-10-11T08:28:24.677Z,1007.56
2018-10-11T08:29:24.670Z,1007.63
2018-10-11T08:30:24.604Z,1007.62
2018-10-11T08:31:24.614Z,1007.65
2018-10-11T08:32:24.696Z,1007.63
2018-10-11T08:33:24.576Z,1007.62
2018-10-11T08:34:24.555Z,1007.59
2018-10-11T08:35:24.541Z,1007.57
2018-10-11T08:36:24.545Z,1007.59
2018-10-11T08:37:24.631Z,1007.60
2018-10-11T08:38:24.516Z,1007.55
2018-10-11T08:39:24.508Z,1007.54
2018-10-11T08:40:24.485Z,1007.57
2018-10-11T08:41:24.474Z,1007.56
2018-10-11T08:42:24.516Z,1007.57
2018-10-11T08:43:24.477Z,1007.57
2018-10-11T08:44:24.441Z,1007.60
2018-10-11T08:45:24.428Z,1007.56
2018-10-11T08:46:24.416Z,1007.57
2018-10-11T08:47:24.431Z,1007.59
2018-10-11T08:48:24.399Z,1007.60
2018-10-11T08:49:24.394Z,1007.62
2018-10-11T08:50:24.481Z,1007.60
2018-10-11T08:51:24.367Z,1007.58
2018-10-11T08:52:24.411Z,1007.59
2018-10-11T08:53:24.344Z,1007.63
2018-10-11T08:54:24.327Z,1007.64
2018-10-11T08:55:24.375Z,1007.59
2018-10-11T08:56:24.316Z,1007.60
2018-10-11T08:57:24.754Z,1007.56
2018-10-11T08:58:24.280Z,1007.59
2018-10-11T08:59:24.342Z,1007.57
2018-10-11T09:00:24.258Z,1007.62
2018-10-11T09:01:24.269Z,1007.59
2018-10-11T09:02:24.262Z,1007.62
2018-10-11T09:03:24.254Z,1007.58
2018-10-11T09:04:24.215Z,1007.56
2018-10-11T09:05:24.203Z,1007.62
2018-10-11T09:06:24.190Z,1007.56
2018-10-11T09:07:24.209Z,1007.61
2018-10-11T09:08:24.185Z,1007.56
2018-10-11T09:09:24.171Z,1007.56
2018-10-11T09:10:37.860Z,1007.60
2018-10-11T09:11:24.224Z,1007.60
2018-10-11T09:12:24.145Z,1007.58
2018-10-11T09:13:24.111Z,1007.61
2018-10-11T09:14:24.117Z,1007.58
2018-10-11T09:15:24.091Z,1007.60
2018-10-11T09:16:24.080Z,1007.59
2018-10-11T09:17:24.154Z,1007.56
2018-10-11T09:18:24.057Z,1007.57
2018-10-11T09:19:24.044Z,1007.55
2018-10-11T09:20:24.064Z,1007.51
2018-10-11T09:21:24.021Z,1007.50
2018-10-11T09:22:24.046Z,1007.48
2018-10-11T09:23:24.093Z,1007.52
2018-10-11T09:24:23.990Z,1007.51
2018-10-11T09:25:23.975Z,1007.53
2018-10-11T09:26:23.966Z,1007.48
2018-10-11T09:27:23.976Z,1007.51
2018-10-11T09:28:23.945Z,1007.51
2018-10-11T09:29:23.933Z,1007.47
2018-10-11T09:30:23.973Z,1007.51
2018-10-11T09:31:23.908Z,1007.47
2018-10-11T09:32:23.899Z,1007.48
2018-10-11T09:33:23.918Z,1007.50
2018-10-11T09:34:23.877Z,1007.44
2018-10-11T09:35:23.864Z,1007.50
2018-10-11T09:36:23.910Z,1007.46
2018-10-11T09:37:23.876Z,1007.46
2018-10-11T09:38:23.829Z,1007.45
2018-10-11T09:39:23.824Z,1007.42
2018-10-11T09:40:23.806Z,1007.39
2018-10-11T09:41:23.795Z,1007.38
2018-10-11T09:42:23.786Z,1007.43
2018-10-11T09:43:23.800Z,1007.40
2018-10-11T09:44:23.762Z,1007.41
2018-10-11T09:45:23.753Z,1007.39
2018-10-11T09:46:23.739Z,1007.43
2018-10-11T09:47:23.731Z,1007.45
2018-10-11T09:48:23.740Z,1007.48
2018-10-11T09:49:23.713Z,1007.47
2018-10-11T09:50:23.700Z,1007.48
2018-10-11T09:51:23.684Z,1007.49
2018-10-11T09:52:23.679Z,1007.49
2018-10-11T09:53:23.686Z,1007.50
2018-10-11T09:54:23.666Z,1007.54
2018-10-11T09:55:23.637Z,1007.52
2018-10-11T09:56:23.631Z,1007.55
2018-10-11T09:57:23.622Z,1007.48
2018-10-11T09:58:23.629Z,1007.52
2018-10-11T09:59:23.593Z,1007.51
2018-10-11T10:00:23.584Z,1007.44
2018-10-11T10:01:23.571Z,1007.46
2018-10-11T10:02:23.561Z,1007.42
2018-10-11T10:03:23.572Z,1007.33
2018-10-11T10:04:23.549Z,1007.28
2018-10-11T10:05:23.527Z,1007.25
2018-10-11T10:06:23.513Z,1007.27
2018-10-11T10:07:23.506Z,1007.22
2018-10-11T10:08:23.515Z,1007.24
2018-10-11T10:09:23.483Z,1007.23
2018-10-11T10:10:23.471Z,1007.22
2018-10-11T10:11:23.723Z,1007.23
2018-10-11T10:12:23.449Z,1007.23
2018-10-11T10:13:23.458Z,1007.28
2018-10-11T10:14:23.423Z,1007.28
2018-10-11T10:15:23.415Z,1007.32
2018-10-11T10:16:23.401Z,1007.34
2018-10-11T10:17:23.398Z,1007.34
2018-10-11T10:18:23.409Z,1007.32
2018-10-11T10:19:23.367Z,1007.30
2018-10-11T10:20:23.355Z,1007.34
2018-10-11T10:21:23.443Z,1007.34
2018-10-11T10:22:23.332Z,1007.37
2018-10-11T10:23:23.346Z,1007.36
2018-10-11T10:24:23.320Z,1007.41
2018-10-11T10:25:23.307Z,1007.40
2018-10-11T10:26:23.294Z,1007.40
2018-10-11T10:27:23.349Z,1007.44
2018-10-11T10:28:23.315Z,1007.38
2018-10-11T10:29:23.253Z,1007.39
2018-10-11T10:30:23.244Z,1007.39
2018-10-11T10:31:23.244Z,1007.38
2018-10-11T10:32:23.220Z,1007.43
2018-10-11T10:33:23.233Z,1007.38
2018-10-11T10:34:23.204Z,1007.37
2018-10-11T10:35:23.192Z,1007.39
2018-10-11T10:36:23.178Z,1007.40
2018-10-11T10:37:23.185Z,1007.43
2018-10-11T10:38:23.177Z,1007.42
2018-10-11T10:39:23.142Z,1007.38
2018-10-11T10:40:23.129Z,1007.38
2018-10-11T10:41:23.119Z,1007.45
2018-10-11T10:42:23.120Z,1007.40
2018-10-11T10:43:23.119Z,1007.44
2018-10-11T10:44:23.085Z,1007.47
2018-10-11T10:45:23.079Z,1007.42
2018-10-11T10:46:23.062Z,1007.46
2018-10-11T10:47:23.073Z,1007.46
2018-10-11T10:48:23.068Z,1007.51
2018-10-11T10:49:23.033Z,1007.44
2018-10-11T10:50:23.019Z,1007.39
2018-10-11T10:51:23.012Z,1007.37
2018-10-11T10:52:22.996Z,1007.35
2018-10-11T10:53:23.011Z,1007.33
2018-10-11T10:54:23.118Z,1007.25
2018-10-11T10:55:22.964Z,1007.20
2018-10-11T10:56:22.950Z,1007.20
2018-10-11T10:57:22.944Z,1007.18
2018-10-11T10:58:22.954Z,1007.17
2018-10-11T10:59:22.918Z,1007.18
2018-10-11T11:00:22.906Z,1007.13
2018-10-11T11:01:22.895Z,1007.12
2018-10-11T11:02:22.883Z,1007.12
2018-10-11T11:03:22.901Z,1007.10
2018-10-11T11:04:22.860Z,1007.08
2018-10-11T11:05:22.855Z,1007.04
2018-10-11T11:06:22.840Z,1007.01
2018-10-11T11:07:22.883Z,1007.04
2018-10-11T11:08:22.846Z,1007.04
2018-10-11T11:09:22.805Z,1007.05
2018-10-11T11:10:22.796Z,1007.04
2018-10-11T11:11:22.787Z,1007.06
2018-10-11T11:12:22.777Z,1007.10
2018-10-11T11:13:22.792Z,1007.07
2018-10-11T11:14:22.750Z,1007.02
2018-10-11T11:15:22.738Z,1007.01
2018-10-11T11:16:22.731Z,1007.06
2018-10-11T11:17:22.715Z,1007.09
2018-10-11T11:18:22.736Z,1007.04
2018-10-11T11:19:22.706Z,1007.02
2018-10-11T11:20:22.685Z,1006.99
2018-10-11T11:21:22.670Z,1007.02
2018-10-11T11:22:22.667Z,1007.00
2018-10-11T11:23:22.669Z,1006.92
2018-10-11T11:24:22.707Z,1006.97
2018-10-11T11:25:22.790Z,1006.96
2018-10-11T11:26:22.614Z,1006.90
2018-10-11T11:27:22.604Z,1006.93
2018-10-11T11:28:22.621Z,1006.94
2018-10-11T11:29:22.588Z,1006.93
2018-10-11T11:30:22.571Z,1006.91
2018-10-11T11:31:22.562Z,1006.87
2018-10-11T11:32:22.551Z,1006.88
2018-10-11T11:33:22.564Z,1006.87
2018-10-11T11:34:22.540Z,1006.91
2018-10-11T11:35:22.537Z,1006.90
2018-10-11T11:36:22.511Z,1006.89
2018-10-11T11:37:22.491Z,1006.90
2018-10-11T11:38:22.520Z,1006.92
2018-10-11T11:39:22.485Z,1006.87
2018-10-11T11:40:22.462Z,1006.95
2018-10-11T11:41:22.446Z,1007.02
2018-10-11T11:42:22.439Z,1006.94
2018-10-11T11:43:22.430Z,1006.95
2018-10-11T11:44:22.446Z,1007.00
2018-10-11T11:45:22.409Z,1007.00
2018-10-11T11:46:22.393Z,1006.95
2018-10-11T11:47:22.391Z,1007.02
2018-10-11T11:48:22.371Z,1006.96
2018-10-11T11:49:22.381Z,1007.00
2018-10-11T11:50:22.375Z,1006.95
2018-10-11T11:51:22.338Z,1007.01
2018-10-11T11:52:22.328Z,1006.97
2018-10-11T11:53:22.320Z,1006.95
2018-10-11T11:54:22.331Z,1006.97
2018-10-11T11:55:22.308Z,1007.00
2018-10-11T11:56:22.285Z,1006.97
2018-10-11T11:57:22.273Z,1007.01
2018-10-11T11:58:22.263Z,1007.05
2018-10-11T11:59:22.274Z,1007.00
2018-10-11T12:00:22.238Z,1007.08
2018-10-11T12:01:22.234Z,1007.05
2018-10-11T12:02:22.217Z,1007.08
2018-10-11T12:03:22.219Z,1007.02
2018-10-11T12:04:22.243Z,1007.03
2018-10-11T12:05:22.181Z,1007.03